Time;durP1;ratioP1;P1;durP2;ratioP2;P2;SDS_P1;SDS_P2;PMS_P1;PMS_P2;Temp;Humidity;BMP_temperature;BMP_pressure;BME280_temperature;BME280_humidity;BME280_pressure;Samples;Min_cycle;Max_cycle;Signal;HPM_P1;HPM_P2
2023/01/03 11:03:31;;;;;;;25.92;12.10;;;6.40;99.90;;;;;;5033684;27;1922613;-62
2023/01/03 11:05:59;;;;;;;27.00;12.48;;;6.40;99.90;;;;;;5083513;28;20024;-63
2023/01/03 11:08:43;;;;;;;28.95;13.10;;;6.50;99.90;;;;;;5078663;28;20021;-62
2023/01/03 11:11:33;;;;;;;35.47;16.17;;;6.70;99.90;;;;;;5068466;28;20029;-63
2023/01/03 11:14:08;;;;;;;27.13;11.95;;;6.80;99.90;;;;;;5054738;28;20047;-63
2023/01/03 11:16:34;;;;;;;28.77;12.55;;;6.90;99.90;;;;;;5069024;28;20017;-63
2023/01/03 11:19:05;;;;;;;27.45;13.07;;;7.10;99.90;;;;;;5070172;28;20448;-63
2023/01/03 11:21:50;;;;;;;;;;;7.10;99.90;;;;;;5084682;28;20116;-64
2023/01/03 11:24:33;;;;;;;25.38;11.65;;;7.20;99.90;;;;;;5087791;28;19955;-63
2023/01/03 11:27:03;;;;;;;25.23;11.10;;;7.20;99.90;;;;;;5088381;28;20032;-63
2023/01/03 11:30:06;;;;;;;24.30;13.20;;;7.30;99.90;;;;;;5084897;28;20019;-64
2023/01/03 11:32:45;;;;;;;30.77;14.18;;;7.30;99.90;;;;;;5087407;28;20039;-64
2023/01/03 11:35:32;;;;;;;28.88;12.40;;;7.40;99.90;;;;;;5083495;28;20082;-63
2023/01/03 11:38:36;;;;;;;24.70;11.10;;;7.40;99.90;;;;;;5074534;28;20031;-63
2023/01/03 11:41:36;;;;;;;27.38;11.55;;;7.50;99.90;;;;;;5032988;28;20472;-63
2023/01/03 11:44:42;;;;;;;26.33;11.57;;;7.50;99.90;;;;;;5038266;28;20055;-63
2023/01/03 11:47:23;;;;;;;24.17;11.50;;;7.50;99.90;;;;;;5076037;28;20024;-65
2023/01/03 11:50:07;;;;;;;31.48;12.02;;;7.50;99.90;;;;;;5081402;28;20484;-62
2023/01/03 11:52:44;;;;;;;23.90;10.30;;;7.60;99.90;;;;;;5069745;28;20154;-64
2023/01/03 11:55:15;;;;;;;25.80;10.48;;;7.50;99.90;;;;;;5083450;28;20036;-64
2023/01/03 11:58:17;;;;;;;24.65;9.88;;;7.50;99.90;;;;;;5067625;28;20519;-63
2023/01/03 12:01:06;;;;;;;21.30;9.95;;;7.60;99.90;;;;;;5068567;28;20052;-64
2023/01/03 12:03:40;;;;;;;24.45;11.48;;;7.60;99.90;;;;;;5072023;28;20553;-62
2023/01/03 12:06:15;;;;;;;18.55;9.77;;;7.60;99.90;;;;;;5082510;28;20024;-63
2023/01/03 12:08:47;;;;;;;19.65;9.18;;;7.60;99.90;;;;;;5070999;28;20017;-64
2023/01/03 12:11:45;;;;;;;24.30;10.75;;;7.60;99.90;;;;;;5077159;28;20442;-64
2023/01/03 12:14:36;;;;;;;20.05;9.57;;;7.70;99.90;;;;;;5060982;28;20345;-64
2023/01/03 12:17:08;;;;;;;19.98;9.52;;;7.60;99.90;;;;;;5068595;28;20040;-66
2023/01/03 12:20:06;;;;;;;20.92;9.25;;;7.60;99.90;;;;;;5074281;28;20469;-67
2023/01/03 12:22:48;;;;;;;17.58;8.63;;;7.60;99.90;;;;;;5058334;28;20125;-66
2023/01/03 12:25:35;;;;;;;21.20;9.80;;;7.70;99.90;;;;;;5054434;28;20021;-67
2023/01/03 12:28:10;;;;;;;21.77;9.18;;;7.70;99.90;;;;;;5052595;28;20043;-65
2023/01/03 12:30:51;;;;;;;18.70;9.38;;;7.60;99.90;;;;;;5074085;28;20416;-66
2023/01/03 12:33:56;;;;;;;20.97;9.73;;;7.60;99.90;;;;;;5070727;28;20024;-68
2023/01/03 12:36:47;;;;;;;22.38;9.80;;;7.70;99.90;;;;;;5074327;28;20275;-67
2023/01/03 12:39:24;;;;;;;19.08;9.38;;;7.70;99.90;;;;;;5055327;28;20462;-69
2023/01/03 12:42:02;;;;;;;23.45;10.60;;;7.70;99.90;;;;;;5073827;28;20025;-67
2023/01/03 12:44:43;;;;;;;20.85;9.43;;;7.70;99.90;;;;;;5074357;28;20021;-66
2023/01/03 12:47:18;;;;;;;18.50;8.10;;;7.80;99.90;;;;;;5053697;28;20099;-66
2023/01/03 12:49:55;;;;;;;15.95;7.88;;;7.80;99.90;;;;;;5063875;28;20477;-67
2023/01/03 12:52:23;;;;;;;18.83;8.77;;;7.80;99.90;;;;;;5054279;28;20048;-66
2023/01/03 12:54:56;;;;;;;18.60;8.80;;;7.80;99.90;;;;;;5040079;28;20036;-65
2023/01/03 12:57:45;;;;;;;18.00;9.60;;;7.80;99.90;;;;;;5052661;28;20500;-65
2023/01/03 13:00:27;;;;;;;20.25;8.80;;;7.90;99.90;;;;;;5052438;28;20029;-65
2023/01/03 13:03:06;;;;;;;19.08;9.50;;;7.90;99.90;;;;;;5034045;28;20449;-64
2023/01/03 13:05:46;;;;;;;20.70;8.93;;;7.90;99.90;;;;;;5043234;28;20035;-65
2023/01/03 13:08:52;;;;;;;16.20;8.07;;;7.90;99.90;;;;;;5048701;28;20036;-63
2023/01/03 13:11:32;;;;;;;14.90;7.97;;;7.90;99.90;;;;;;5053365;28;20036;-63
2023/01/03 13:14:19;;;;;;;16.45;8.25;;;8.00;99.90;;;;;;5053251;28;20017;-63
2023/01/03 13:16:47;;;;;;;17.15;8.23;;;8.00;99.90;;;;;;5052938;28;20038;-64
2023/01/03 13:19:20;;;;;;;15.25;7.72;;;8.00;99.90;;;;;;5053259;28;20055;-62
2023/01/03 13:21:51;;;;;;;17.70;8.27;;;8.10;99.90;;;;;;5060226;28;20105;-64
2023/01/03 13:24:43;;;;;;;16.60;8.25;;;8.10;99.90;;;;;;5072896;28;20024;-63
2023/01/03 13:27:18;;;;;;;16.08;8.65;;;8.10;99.90;;;;;;5071898;28;20028;-63
2023/01/03 13:29:49;;;;;;;15.85;8.02;;;8.20;99.90;;;;;;5052650;28;20033;-62
2023/01/03 13:32:21;;;;;;;18.20;8.93;;;8.20;99.90;;;;;;5053045;28;20102;-63
2023/01/03 13:34:55;;;;;;;13.27;7.57;;;8.30;99.90;;;;;;5052665;28;20390;-63
2023/01/03 13:37:26;;;;;;;20.00;8.95;;;8.30;99.90;;;;;;5066467;28;20036;-62
2023/01/03 13:39:51;;;;;;;19.30;9.20;;;8.30;99.90;;;;;;5058353;28;20111;-63
2023/01/03 13:42:28;;;;;;;16.70;8.57;;;8.40;99.90;;;;;;5070710;28;20142;-64
2023/01/03 13:45:13;;;;;;;15.35;8.20;;;8.40;99.90;;;;;;5052593;28;20043;-65
2023/01/03 13:47:48;;;;;;;17.75;8.57;;;8.50;99.90;;;;;;5069778;28;20020;-64
2023/01/03 13:50:40;;;;;;;13.52;7.82;;;8.40;99.90;;;;;;5051062;28;20544;-64
2023/01/03 13:53:09;;;;;;;12.60;6.70;;;8.50;99.90;;;;;;5054801;28;20036;-64
2023/01/03 13:55:38;;;;;;;12.40;5.90;;;8.50;99.90;;;;;;5072664;28;20047;-64
2023/01/03 13:58:28;;;;;;;10.32;5.55;;;8.60;99.90;;;;;;5069097;28;20033;-64
2023/01/03 14:00:58;;;;;;;13.55;6.30;;;8.60;99.90;;;;;;5053020;28;20503;-64
2023/01/03 14:03:51;;;;;;;8.05;4.80;;;8.60;99.90;;;;;;5052466;28;20504;-64
2023/01/03 14:06:41;;;;;;;7.90;4.57;;;8.60;99.90;;;;;;5053002;28;20128;-64
2023/01/03 14:09:16;;;;;;;7.72;4.35;;;8.60;99.90;;;;;;5034986;28;20497;-62
2023/01/03 14:11:51;;;;;;;9.70;4.13;;;8.70;99.90;;;;;;5052382;28;20032;-63
2023/01/03 14:14:22;;;;;;;7.53;4.13;;;8.70;99.90;;;;;;5052802;28;20021;-63
2023/01/03 14:16:53;;;;;;;9.63;4.45;;;8.70;99.90;;;;;;5052748;28;20033;-63
2023/01/03 14:19:32;;;;;;;6.90;4.00;;;8.80;99.90;;;;;;5052466;28;20414;-64
2023/01/03 14:22:18;;;;;;;9.23;3.92;;;8.80;99.90;;;;;;5034507;28;20823;-63
2023/01/03 14:24:50;;;;;;;6.97;3.75;;;8.80;99.90;;;;;;5052877;28;20025;-63
2023/01/03 14:27:18;;;;;;;6.57;3.75;;;8.80;99.90;;;;;;5052710;28;20024;-63
2023/01/03 14:29:51;;;;;;;6.38;3.47;;;8.80;99.90;;;;;;5062415;28;20366;-61
2023/01/03 14:32:28;;;;;;;6.60;3.50;;;8.80;99.90;;;;;;5054804;28;20028;-62
2023/01/03 14:34:54;;;;;;;10.02;4.13;;;8.80;99.90;;;;;;5063423;28;20106;-65
2023/01/03 14:37:23;;;;;;;7.38;3.97;;;8.80;99.90;;;;;;5058226;28;20028;-64
2023/01/03 14:39:55;;;;;;;5.60;3.22;;;8.80;99.90;;;;;;5052236;28;20043;-65
2023/01/03 14:42:20;;;;;;;;;;;8.80;99.90;;;;;;5068709;28;20048;-63
2023/01/03 14:44:54;;;;;;;6.35;3.53;;;8.80;99.90;;;;;;5049568;28;20299;-62
2023/01/03 14:47:20;;;;;;;8.00;3.83;;;8.80;99.90;;;;;;5052138;28;20040;-62
2023/01/03 14:49:48;;;;;;;9.55;4.68;;;8.70;99.90;;;;;;5054074;28;20021;-61
2023/01/03 14:52:44;;;;;;;8.07;4.82;;;8.70;99.90;;;;;;5071845;28;20060;-62
2023/01/03 14:55:16;;;;;;;9.85;5.30;;;8.60;99.90;;;;;;5055973;28;20043;-62
2023/01/03 14:57:44;;;;;;;9.50;6.13;;;8.50;99.90;;;;;;5052011;28;20500;-62
2023/01/03 15:00:19;;;;;;;15.30;8.38;;;8.50;99.90;;;;;;5050946;28;20009;-62
2023/01/03 15:02:47;;;;;;;12.10;6.85;;;8.40;99.90;;;;;;5051953;28;20489;-62
2023/01/03 15:05:31;;;;;;;10.25;5.70;;;8.50;99.90;;;;;;5051886;28;20021;-62
2023/01/03 15:08:32;;;;;;;8.77;5.55;;;8.40;99.90;;;;;;5051704;28;20177;-63
2023/01/03 15:11:07;;;;;;;10.07;5.65;;;8.40;99.90;;;;;;5052092;28;20214;-62
2023/01/03 15:13:46;;;;;;;14.52;6.32;;;8.40;99.90;;;;;;5051923;28;20059;-62
2023/01/03 15:16:39;;;;;;;10.77;6.25;;;8.40;99.90;;;;;;5051368;28;20190;-62
2023/01/03 15:19:25;;;;;;;13.20;6.53;;;8.30;99.90;;;;;;5049180;28;20107;-62
2023/01/03 15:22:04;;;;;;;12.10;7.22;;;8.30;99.90;;;;;;5051291;28;20029;-62
2023/01/03 15:24:36;;;;;;;10.55;6.15;;;8.30;99.90;;;;;;5052007;28;20033;-62
2023/01/03 15:27:31;;;;;;;10.25;6.55;;;8.30;99.90;;;;;;5063119;28;20020;-61
2023/01/03 15:30:22;;;;;;;11.88;7.00;;;8.30;99.90;;;;;;5062902;28;20029;-63
2023/01/03 15:32:52;;;;;;;14.60;7.47;;;8.30;99.90;;;;;;5033744;28;20029;-62
2023/01/03 15:35:41;;;;;;;12.07;6.97;;;8.30;99.90;;;;;;5039018;28;20021;-62
2023/01/03 15:38:22;;;;;;;11.82;7.30;;;8.20;99.90;;;;;;5035001;28;20140;-62
2023/01/03 15:40:49;;;;;;;16.05;10.02;;;8.20;99.90;;;;;;5064026;28;20028;-62
2023/01/03 15:43:23;;;;;;;17.27;10.85;;;8.10;99.90;;;;;;5050487;28;20374;-62
2023/01/03 15:45:59;;;;;;;17.35;10.40;;;8.00;99.90;;;;;;5065599;28;20027;-62
2023/01/03 15:48:25;;;;;;;18.98;11.65;;;8.00;99.90;;;;;;5071544;28;20099;-61
2023/01/03 15:50:54;;;;;;;16.23;11.50;;;7.90;99.90;;;;;;5075330;28;20162;-61
2023/01/03 15:53:33;;;;;;;14.95;8.25;;;7.80;99.90;;;;;;5075254;28;20477;-62
2023/01/03 15:56:19;;;;;;;14.00;7.55;;;7.70;99.90;;;;;;5075232;28;20060;-60
2023/01/03 15:58:47;;;;;;;15.73;9.40;;;7.70;99.90;;;;;;5057336;28;20043;-63
2023/01/03 16:01:12;;;;;;;16.38;9.18;;;7.60;99.90;;;;;;5041379;28;20021;-62
2023/01/03 16:03:39;;;;;;;13.23;7.63;;;7.50;99.90;;;;;;5059403;28;20068;-62
2023/01/03 16:06:05;;;;;;;12.88;8.13;;;7.40;99.90;;;;;;5074598;28;20059;-62
2023/01/03 16:08:33;;;;;;;16.48;10.15;;;7.40;99.90;;;;;;5074552;28;20021;-64
2023/01/03 16:11:01;;;;;;;15.95;10.25;;;7.40;99.90;;;;;;5061612;28;20056;-62
2023/01/03 16:13:29;;;;;;;11.20;8.65;;;7.30;99.90;;;;;;5058017;28;20048;-63
2023/01/03 16:15:57;;;;;;;14.85;9.13;;;7.30;99.90;;;;;;5073983;28;20374;-64
2023/01/03 16:18:40;;;;;;;13.52;8.43;;;7.20;99.90;;;;;;5062800;28;20029;-63
2023/01/03 16:21:06;;;;;;;19.58;9.93;;;7.10;99.90;;;;;;5054501;28;20040;-62
2023/01/03 16:23:33;;;;;;;17.65;11.32;;;7.10;99.90;;;;;;5054711;28;20029;-63
2023/01/03 16:25:59;;;;;;;16.92;9.88;;;7.10;99.90;;;;;;5053867;28;20474;-63
2023/01/03 16:28:25;;;;;;;17.67;10.93;;;7.10;99.90;;;;;;5055317;28;20025;-63
2023/01/03 16:30:59;;;;;;;17.38;12.40;;;7.00;99.90;;;;;;5068490;28;20376;-63
2023/01/03 16:33:28;;;;;;;16.52;12.20;;;7.00;99.90;;;;;;5073610;28;20483;-63
2023/01/03 16:35:54;;;;;;;16.98;11.35;;;7.00;99.90;;;;;;5054786;28;20033;-62
2023/01/03 16:38:20;;;;;;;21.60;12.35;;;7.00;99.90;;;;;;5073950;28;20028;-61
2023/01/03 16:40:45;;;;;;;16.77;11.80;;;7.00;99.90;;;;;;5072804;28;20035;-62
2023/01/03 16:43:11;;;;;;;20.38;13.75;;;7.00;99.90;;;;;;5054759;28;20044;-61
2023/01/03 16:45:39;;;;;;;21.90;13.15;;;7.00;99.90;;;;;;5053341;28;20481;-64
2023/01/03 16:48:05;;;;;;;20.98;13.55;;;7.00;99.90;;;;;;5070329;28;20508;-63
2023/01/03 16:50:35;;;;;;;22.60;14.23;;;7.00;99.90;;;;;;5056743;28;20155;-63
2023/01/03 16:53:01;;;;;;;21.75;13.30;;;7.00;99.90;;;;;;5035162;28;20029;-63
2023/01/03 16:55:37;;;;;;;22.05;14.70;;;7.10;99.90;;;;;;5055381;28;20036;-63
2023/01/03 16:58:03;;;;;;;19.90;13.18;;;7.10;99.90;;;;;;5070456;28;20029;-63
2023/01/03 17:00:31;;;;;;;20.25;13.65;;;7.10;99.90;;;;;;5062068;28;20408;-63
2023/01/03 17:03:01;;;;;;;21.60;13.77;;;7.10;99.90;;;;;;5073223;28;20489;-63
2023/01/03 17:05:31;;;;;;;27.48;16.17;;;7.10;99.90;;;;;;5061279;28;20048;-63
2023/01/03 17:08:24;;;;;;;26.23;14.47;;;7.10;99.90;;;;;;5072500;28;20085;-63
2023/01/03 17:10:53;;;;;;;21.33;12.65;;;7.10;99.90;;;;;;5063227;28;20066;-62
2023/01/03 17:13:26;;;;;;;20.58;14.02;;;7.10;99.90;;;;;;5071911;28;20096;-62
2023/01/03 17:15:52;;;;;;;16.83;11.95;;;7.10;99.90;;;;;;5070520;28;20455;-62
2023/01/03 17:18:20;;;;;;;16.00;12.15;;;7.10;99.90;;;;;;5073098;28;20024;-62
2023/01/03 17:20:51;;;;;;;20.05;13.63;;;7.10;99.90;;;;;;5071594;28;20020;-62
2023/01/03 17:23:17;;;;;;;20.23;13.32;;;7.10;99.90;;;;;;5065141;28;20032;-62
2023/01/03 17:25:42;;;;;;;14.20;10.50;;;7.20;99.90;;;;;;5052669;28;20454;-62
2023/01/03 17:28:09;;;;;;;21.08;12.48;;;7.20;99.90;;;;;;5052492;28;20071;-62
2023/01/03 17:30:35;;;;;;;19.38;11.55;;;7.20;99.90;;;;;;5040336;28;20020;-62
2023/01/03 17:33:01;;;;;;;18.55;11.30;;;7.20;99.90;;;;;;5054597;28;20020;-62
2023/01/03 17:35:26;;;;;;;18.23;11.13;;;7.30;99.90;;;;;;5053873;28;20032;-62
2023/01/03 17:37:52;;;;;;;16.90;10.65;;;7.30;99.90;;;;;;5054497;28;20020;-63
2023/01/03 17:40:23;;;;;;;24.00;12.23;;;7.30;99.90;;;;;;5072213;28;20028;-62
2023/01/03 17:42:53;;;;;;;16.90;11.93;;;7.40;99.90;;;;;;5071681;28;20032;-63
2023/01/03 17:50:46;;;;;;;11.98;8.60;;;7.40;99.90;;;;;;5071983;28;20043;-62
2023/01/03 17:53:15;;;;;;;14.07;9.57;;;7.50;99.90;;;;;;5072474;28;20114;-64
2023/01/03 17:55:41;;;;;;;17.77;10.32;;;7.50;99.90;;;;;;5072414;28;20028;-63
2023/01/03 17:58:11;;;;;;;15.02;9.27;;;7.50;99.90;;;;;;5070947;28;20046;-62
2023/01/03 18:00:37;;;;;;;13.95;8.27;;;7.60;99.90;;;;;;5051240;28;20100;-67
2023/01/03 18:03:02;;;;;;;15.73;10.43;;;7.60;99.90;;;;;;5050590;28;20094;-63
2023/01/03 18:05:29;;;;;;;16.50;9.25;;;7.60;99.90;;;;;;5052656;28;20104;-62
2023/01/03 18:07:57;;;;;;;16.50;7.88;;;7.60;99.90;;;;;;5051111;28;20028;-67
2023/01/03 18:10:36;;;;;;;12.60;8.48;;;7.60;99.90;;;;;;5051839;28;20020;-66
2023/01/03 18:13:01;;;;;;;12.40;7.57;;;7.70;99.90;;;;;;5048474;28;20021;-64
2023/01/03 18:15:27;;;;;;;12.93;7.50;;;7.70;99.90;;;;;;5066515;28;20392;-66
2023/01/03 18:17:52;;;;;;;12.80;8.77;;;7.70;99.90;;;;;;5059057;28;20428;-64
2023/01/03 18:20:19;;;;;;;13.50;7.60;;;7.70;99.90;;;;;;5052122;28;20021;-67
2023/01/03 18:22:45;;;;;;;12.07;7.03;;;7.70;99.90;;;;;;5052299;28;20043;-65
2023/01/03 18:25:21;;;;;;;13.85;8.65;;;7.80;99.90;;;;;;5051962;28;20028;-66
2023/01/03 18:28:01;;;;;;;14.68;7.68;;;7.80;99.90;;;;;;5033833;28;20489;-66
2023/01/03 18:30:27;;;;;;;14.00;6.90;;;7.80;99.90;;;;;;5058901;28;20028;-62
2023/01/03 18:32:53;;;;;;;11.63;7.55;;;7.80;99.90;;;;;;5067819;28;20032;-64
2023/01/03 18:35:20;;;;;;;12.25;6.28;;;7.70;99.90;;;;;;5071832;28;20362;-63
2023/01/03 18:37:49;;;;;;;11.85;5.57;;;7.80;99.90;;;;;;5070558;28;20032;-62
2023/01/03 18:40:21;;;;;;;10.23;4.70;;;7.80;99.90;;;;;;5053938;28;20091;-62
2023/01/03 18:45:31;;;;;;;8.85;4.88;;;7.80;99.90;;;;;;5071132;28;20039;-62
2023/01/03 18:47:57;;;;;;;12.32;4.80;;;7.80;99.90;;;;;;5056642;28;20029;-63
2023/01/03 18:50:23;;;;;;;12.88;4.40;;;7.80;99.90;;;;;;5034061;28;20111;-62
2023/01/03 18:52:49;;;;;;;9.40;4.10;;;7.80;99.90;;;;;;5032984;28;20063;-63
2023/01/03 18:55:20;;;;;;;9.68;4.55;;;7.90;99.90;;;;;;5051508;28;20021;-62
2023/01/03 18:57:47;;;;;;;8.05;3.70;;;7.80;99.90;;;;;;5051489;28;20091;-62
2023/01/03 19:00:19;;;;;;;10.18;4.18;;;7.80;99.90;;;;;;5051310;28;20072;-61
2023/01/03 19:02:45;;;;;;;9.57;4.40;;;7.80;99.90;;;;;;5059075;28;20048;-62
2023/01/03 19:05:10;;;;;;;7.35;4.00;;;7.80;99.90;;;;;;5055802;28;20385;-64
2023/01/03 19:07:37;;;;;;;8.00;3.65;;;7.80;99.90;;;;;;5050644;28;20032;-63
2023/01/03 19:10:05;;;;;;;8.13;4.85;;;7.80;99.90;;;;;;5051503;28;20078;-62
2023/01/03 19:12:37;;;;;;;7.28;4.20;;;7.70;99.90;;;;;;5052689;28;20029;-63
2023/01/03 19:15:18;;;;;;;7.30;4.28;;;7.70;99.90;;;;;;5051468;28;20021;-62
2023/01/03 19:17:43;;;;;;;11.15;4.68;;;7.70;99.90;;;;;;5051214;28;20082;-61
2023/01/03 19:20:10;;;;;;;9.77;4.20;;;7.60;99.90;;;;;;5051163;28;20021;-62
2023/01/03 19:22:39;;;;;;;9.02;3.90;;;7.70;99.90;;;;;;5050921;28;20033;-61
2023/01/03 19:25:12;;;;;;;11.05;3.75;;;7.70;99.90;;;;;;5059746;28;20465;-63
2023/01/03 19:27:43;;;;;;;7.75;3.80;;;7.60;99.90;;;;;;5074704;28;20473;-62
2023/01/03 19:30:31;;;;;;;6.72;3.47;;;7.70;99.90;;;;;;5057907;28;20385;-62
2023/01/03 19:32:58;;;;;;;6.63;3.28;;;7.70;99.90;;;;;;5075350;28;20475;-67
2023/01/03 19:35:23;;;;;;;9.05;3.45;;;7.70;99.90;;;;;;5073773;28;20060;-62
2023/01/03 19:37:49;;;;;;;6.43;3.60;;;7.70;99.90;;;;;;5075072;28;20048;-65
2023/01/03 19:40:21;;;;;;;8.18;3.05;;;7.70;99.90;;;;;;5075473;28;20122;-63
2023/01/03 19:42:53;;;;;;;7.82;3.83;;;7.80;99.90;;;;;;5074156;28;20056;-62
2023/01/03 19:45:22;;;;;;;;;;;7.80;99.90;;;;;;5075771;28;20024;-63
2023/01/03 19:47:47;;;;;;;7.82;3.40;;;7.80;99.90;;;;;;5057112;28;19905;-64
2023/01/03 19:50:24;;;;;;;5.68;2.72;;;7.80;99.90;;;;;;5055886;28;20033;-63
2023/01/03 19:52:50;;;;;;;9.10;3.22;;;7.90;99.90;;;;;;5040762;28;20025;-62
2023/01/03 19:55:16;;;;;;;15.23;5.93;;;7.90;99.90;;;;;;5037977;28;20047;-63
2023/01/03 19:57:46;;;;;;;7.88;3.90;;;8.00;99.90;;;;;;5054493;28;20095;-64
2023/01/03 20:00:26;;;;;;;11.57;5.28;;;7.90;99.90;;;;;;5054938;28;20078;-63
2023/01/03 20:02:57;;;;;;;16.65;9.05;;;7.90;99.90;;;;;;5053923;28;20044;-63
2023/01/03 20:05:25;;;;;;;15.52;8.15;;;7.90;99.90;;;;;;5036901;28;20017;-66
2023/01/03 20:07:52;;;;;;;11.18;8.10;;;7.90;99.90;;;;;;5055775;28;20396;-65
2023/01/03 20:10:22;;;;;;;11.35;6.40;;;7.80;99.90;;;;;;5068014;28;20025;-64
2023/01/03 20:12:52;;;;;;;8.52;5.38;;;7.80;99.90;;;;;;5074554;28;20024;-63
2023/01/03 20:15:27;;;;;;;12.13;4.95;;;7.70;99.90;;;;;;5073861;28;20024;-63
2023/01/03 20:17:53;;;;;;;10.07;6.13;;;7.70;99.90;;;;;;5043376;28;20071;-63
2023/01/03 20:20:20;;;;;;;10.75;6.00;;;7.60;99.90;;;;;;5066345;28;20055;-62
